sensor_id;sensor_type;location;lat;lon;timestamp;pressure;altitude;pressure_sealevel;temperature;humidity
49973;BME280;65693;49.798;10.968;2023-05-02T00:01:54;98182.66;;;12.62;55.64
49973;BME280;65693;49.798;10.968;2023-05-02T00:04:21;98183.53;;;12.62;55.67
49973;BME280;65693;49.798;10.968;2023-05-02T00:06:48;98174.91;;;12.59;55.69
49973;BME280;65693;49.798;10.968;2023-05-02T00:09:16;98171.44;;;12.58;55.74
49973;BME280;65693;49.798;10.968;2023-05-02T00:11:43;98173.13;;;12.59;55.69
49973;BME280;65693;49.798;10.968;2023-05-02T00:14:09;98166.09;;;12.58;55.77
49973;BME280;65693;49.798;10.968;2023-05-02T00:16:37;98166.22;;;12.57;55.72
49973;BME280;65693;49.798;10.968;2023-05-02T00:19:04;98163.56;;;12.57;55.69
49973;BME280;65693;49.798;10.968;2023-05-02T00:21:30;98162.81;;;12.55;55.71
49973;BME280;65693;49.798;10.968;2023-05-02T00:23:57;98162.81;;;12.55;55.69
49973;BME280;65693;49.798;10.968;2023-05-02T00:26:24;98165.47;;;12.55;55.68
49973;BME280;65693;49.798;10.968;2023-05-02T00:28:51;98159.28;;;12.54;55.68
49973;BME280;65693;49.798;10.968;2023-05-02T00:31:17;98163.78;;;12.54;55.65
49973;BME280;65693;49.798;10.968;2023-05-02T00:33:45;98159.44;;;12.52;55.63
49973;BME280;65693;49.798;10.968;2023-05-02T00:36:15;98161.22;;;12.52;55.62
49973;BME280;65693;49.798;10.968;2023-05-02T00:38:42;98166.53;;;12.52;55.70
49973;BME280;65693;49.798;10.968;2023-05-02T00:41:08;98155.91;;;12.52;55.51
49973;BME280;65693;49.798;10.968;2023-05-02T00:43:35;98156.88;;;12.51;55.56
49973;BME280;65693;49.798;10.968;2023-05-02T00:46:03;98144.44;;;12.51;55.54
49973;BME280;65693;49.798;10.968;2023-05-02T00:48:30;98147.19;;;12.50;55.54
49973;BME280;65693;49.798;10.968;2023-05-02T00:50:58;98143.56;;;12.51;55.59
49973;BME280;65693;49.798;10.968;2023-05-02T00:53:29;98152.50;;;12.50;55.68
49973;BME280;65693;49.798;10.968;2023-05-02T00:55:56;98150.81;;;12.49;55.59
49973;BME280;65693;49.798;10.968;2023-05-02T00:58:23;98155.28;;;12.48;55.61
49973;BME280;65693;49.798;10.968;2023-05-02T01:01:01;98154.44;;;12.48;55.60
49973;BME280;65693;49.798;10.968;2023-05-02T01:03:35;98157.19;;;12.46;55.63
49973;BME280;65693;49.798;10.968;2023-05-02T01:06:13;98150.19;;;12.45;55.57
49973;BME280;65693;49.798;10.968;2023-05-02T01:08:50;98155.41;;;12.47;55.58
49973;BME280;65693;49.798;10.968;2023-05-02T01:11:27;98150.31;;;12.44;55.55
49973;BME280;65693;49.798;10.968;2023-05-02T01:13:58;98149.34;;;12.45;55.53
49973;BME280;65693;49.798;10.968;2023-05-02T01:16:27;98152.84;;;12.45;55.50
49973;BME280;65693;49.798;10.968;2023-05-02T01:18:54;98152.84;;;12.45;55.56
49973;BME280;65693;49.798;10.968;2023-05-02T01:21:24;98152.09;;;12.43;55.64
49973;BME280;65693;49.798;10.968;2023-05-02T01:23:58;98158.28;;;12.44;55.56
49973;BME280;65693;49.798;10.968;2023-05-02T01:26:31;98163.69;;;12.42;55.66
49973;BME280;65693;49.798;10.968;2023-05-02T01:29:02;98170.84;;;12.42;55.57
49973;BME280;65693;49.798;10.968;2023-05-02T01:31:32;98171.66;;;12.42;55.52
49973;BME280;65693;49.798;10.968;2023-05-02T01:33:59;98169.97;;;12.41;55.54
49973;BME280;65693;49.798;10.968;2023-05-02T01:36:28;98167.41;;;12.40;55.48
49973;BME280;65693;49.798;10.968;2023-05-02T01:38:57;98163.94;;;12.39;55.48
49973;BME280;65693;49.798;10.968;2023-05-02T01:41:26;98174.56;;;12.39;55.71
49973;BME280;65693;49.798;10.968;2023-05-02T01:43:56;98174.56;;;12.39;55.59
49973;BME280;65693;49.798;10.968;2023-05-02T01:46:25;98172.88;;;12.38;55.66
49973;BME280;65693;49.798;10.968;2023-05-02T01:48:53;98180.84;;;12.38;55.54
49973;BME280;65693;49.798;10.968;2023-05-02T01:51:26;98184.44;;;12.37;55.55
49973;BME280;65693;49.798;10.968;2023-05-02T01:53:57;98191.56;;;12.36;55.54
49973;BME280;65693;49.798;10.968;2023-05-02T01:56:26;98187.09;;;12.37;55.53
49973;BME280;65693;49.798;10.968;2023-05-02T01:58:55;98188.06;;;12.36;55.53
49973;BME280;65693;49.798;10.968;2023-05-02T02:01:24;98193.38;;;12.36;55.50
49973;BME280;65693;49.798;10.968;2023-05-02T02:03:53;98199.66;;;12.35;55.43
49973;BME280;65693;49.798;10.968;2023-05-02T02:06:21;98188.31;;;12.33;55.55
49973;BME280;65693;49.798;10.968;2023-05-02T02:08:47;98196.13;;;12.34;55.54
49973;BME280;65693;49.798;10.968;2023-05-02T02:11:16;98188.31;;;12.33;55.49
49973;BME280;65693;49.798;10.968;2023-05-02T02:13:53;98183.81;;;12.33;55.57
49973;BME280;65693;49.798;10.968;2023-05-02T02:16:27;98190.97;;;12.33;55.76
49973;BME280;65693;49.798;10.968;2023-05-02T02:18:55;98194.53;;;12.32;55.59
49973;BME280;65693;49.798;10.968;2023-05-02T02:21:24;98189.31;;;12.30;55.42
49973;BME280;65693;49.798;10.968;2023-05-02T02:23:56;98202.63;;;12.30;55.51
49973;BME280;65693;49.798;10.968;2023-05-02T02:26:26;98204.41;;;12.30;55.53
49973;BME280;65693;49.798;10.968;2023-05-02T02:28:54;98206.09;;;12.31;55.46
49973;BME280;65693;49.798;10.968;2023-05-02T02:31:20;98203.56;;;12.29;55.57
49973;BME280;65693;49.798;10.968;2023-05-02T02:33:51;98206.22;;;12.29;55.47
49973;BME280;65693;49.798;10.968;2023-05-02T02:36:24;98216.00;;;12.29;55.48
49973;BME280;65693;49.798;10.968;2023-05-02T02:39:04;98221.44;;;12.27;55.49
49973;BME280;65693;49.798;10.968;2023-05-02T02:41:40;98221.53;;;12.26;55.57
49973;BME280;65693;49.798;10.968;2023-05-02T02:44:19;98224.19;;;12.26;55.42
49973;BME280;65693;49.798;10.968;2023-05-02T02:46:51;98229.50;;;12.26;55.39
49973;BME280;65693;49.798;10.968;2023-05-02T02:49:30;98230.47;;;12.24;55.38
49973;BME280;65693;49.798;10.968;2023-05-02T02:52:04;98222.59;;;12.23;55.37
49973;BME280;65693;49.798;10.968;2023-05-02T02:54:34;98226.97;;;12.24;55.36
49973;BME280;65693;49.798;10.968;2023-05-02T02:57:09;98221.75;;;12.22;55.57
49973;BME280;65693;49.798;10.968;2023-05-02T02:59:47;98235.03;;;12.22;55.43
49973;BME280;65693;49.798;10.968;2023-05-02T03:02:17;98244.81;;;12.22;55.40
49973;BME280;65693;49.798;10.968;2023-05-02T03:04:46;98248.31;;;12.22;55.39
49973;BME280;65693;49.798;10.968;2023-05-02T03:07:16;98254.59;;;12.21;55.32
49973;BME280;65693;49.798;10.968;2023-05-02T03:09:44;98255.56;;;12.20;55.51
49973;BME280;65693;49.798;10.968;2023-05-02T03:12:11;98254.81;;;12.18;55.29
49973;BME280;65693;49.798;10.968;2023-05-02T03:14:38;98259.16;;;12.19;55.53
49973;BME280;65693;49.798;10.968;2023-05-02T03:17:05;98255.66;;;12.19;55.50
49973;BME280;65693;49.798;10.968;2023-05-02T03:19:32;98253.94;;;12.18;55.49
49973;BME280;65693;49.798;10.968;2023-05-02T03:22:00;98259.25;;;12.18;55.39
49973;BME280;65693;49.798;10.968;2023-05-02T03:24:26;98255.78;;;12.17;55.53
49973;BME280;65693;49.798;10.968;2023-05-02T03:26:54;98255.78;;;12.17;55.48
49973;BME280;65693;49.798;10.968;2023-05-02T03:29:20;98267.38;;;12.16;55.41
49973;BME280;65693;49.798;10.968;2023-05-02T03:31:46;98270.03;;;12.16;55.31
49973;BME280;65693;49.798;10.968;2023-05-02T03:34:13;98279.88;;;12.14;55.35
49973;BME280;65693;49.798;10.968;2023-05-02T03:36:39;98275.34;;;12.16;55.31
49973;BME280;65693;49.798;10.968;2023-05-02T03:39:07;98278.81;;;12.17;55.36
49973;BME280;65693;49.798;10.968;2023-05-02T03:41:35;98278.91;;;12.15;55.29
49973;BME280;65693;49.798;10.968;2023-05-02T03:44:01;98286.88;;;12.15;55.44
49973;BME280;65693;49.798;10.968;2023-05-02T03:46:28;98283.41;;;12.15;55.53
49973;BME280;65693;49.798;10.968;2023-05-02T03:48:56;98278.19;;;12.13;55.41
49973;BME280;65693;49.798;10.968;2023-05-02T03:51:22;98285.31;;;12.13;55.30
49973;BME280;65693;49.798;10.968;2023-05-02T03:53:49;98287.00;;;12.14;55.36
49973;BME280;65693;49.798;10.968;2023-05-02T03:56:17;98291.59;;;12.12;55.38
49973;BME280;65693;49.798;10.968;2023-05-02T03:58:45;98290.50;;;12.14;55.21
49973;BME280;65693;49.798;10.968;2023-05-02T04:01:15;98287.00;;;12.14;55.34
49973;BME280;65693;49.798;10.968;2023-05-02T04:03:42;98293.16;;;12.14;55.11
49973;BME280;65693;49.798;10.968;2023-05-02T04:06:08;98296.78;;;12.13;55.44
49973;BME280;65693;49.798;10.968;2023-05-02T04:08:35;98287.97;;;12.13;55.32
49973;BME280;65693;49.798;10.968;2023-05-02T04:11:01;98295.06;;;12.12;55.39
49973;BME280;65693;49.798;10.968;2023-05-02T04:13:29;98302.31;;;12.10;55.40
49973;BME280;65693;49.798;10.968;2023-05-02T04:15:56;98309.44;;;12.09;55.33
49973;BME280;65693;49.798;10.968;2023-05-02T04:18:22;98305.91;;;12.09;55.33
49973;BME280;65693;49.798;10.968;2023-05-02T04:20:49;98302.44;;;12.08;55.46
49973;BME280;65693;49.798;10.968;2023-05-02T04:23:15;98305.91;;;12.09;55.38
49973;BME280;65693;49.798;10.968;2023-05-02T04:25:49;98324.50;;;12.09;55.41
49973;BME280;65693;49.798;10.968;2023-05-02T04:28:16;98321.97;;;12.07;55.54
49973;BME280;65693;49.798;10.968;2023-05-02T04:30:44;98325.47;;;12.08;55.34
49973;BME280;65693;49.798;10.968;2023-05-02T04:33:10;98321.13;;;12.07;55.35
49973;BME280;65693;49.798;10.968;2023-05-02T04:35:38;98321.84;;;12.09;55.32
49973;BME280;65693;49.798;10.968;2023-05-02T04:38:05;98330.78;;;12.08;55.42
49973;BME280;65693;49.798;10.968;2023-05-02T04:40:31;98338.75;;;12.08;55.42
49973;BME280;65693;49.798;10.968;2023-05-02T04:42:58;98334.41;;;12.07;55.37
49973;BME280;65693;49.798;10.968;2023-05-02T04:45:25;98345.97;;;12.06;55.45
49973;BME280;65693;49.798;10.968;2023-05-02T04:47:53;98352.13;;;12.06;55.41
49973;BME280;65693;49.798;10.968;2023-05-02T04:50:19;98353.00;;;12.07;55.41
49973;BME280;65693;49.798;10.968;2023-05-02T04:52:46;98361.91;;;12.06;55.48
49973;BME280;65693;49.798;10.968;2023-05-02T04:55:12;98362.75;;;12.06;55.45
49973;BME280;65693;49.798;10.968;2023-05-02T04:57:38;98359.34;;;12.04;55.46
49973;BME280;65693;49.798;10.968;2023-05-02T05:00:06;98363.81;;;12.04;55.46
49973;BME280;65693;49.798;10.968;2023-05-02T05:02:33;98372.53;;;12.06;55.67
49973;BME280;65693;49.798;10.968;2023-05-02T05:05:01;98371.69;;;12.05;55.94
49973;BME280;65693;49.798;10.968;2023-05-02T05:07:28;98363.72;;;12.05;55.99
49973;BME280;65693;49.798;10.968;2023-05-02T05:09:55;98364.78;;;12.03;55.97
49973;BME280;65693;49.798;10.968;2023-05-02T05:12:21;98361.38;;;12.01;55.95
49973;BME280;65693;49.798;10.968;2023-05-02T05:14:48;98373.81;;;12.00;55.87
49973;BME280;65693;49.798;10.968;2023-05-02T05:17:14;98387.00;;;12.02;56.16
49973;BME280;65693;49.798;10.968;2023-05-02T05:19:41;98380.94;;;12.00;55.93
49973;BME280;65693;49.798;10.968;2023-05-02T05:22:09;98385.28;;;12.01;56.00
49973;BME280;65693;49.798;10.968;2023-05-02T05:24:35;98379.19;;;11.99;55.92
49973;BME280;65693;49.798;10.968;2023-05-02T05:27:02;98384.63;;;11.97;56.01
49973;BME280;65693;49.798;10.968;2023-05-02T05:29:30;98387.16;;;11.99;56.09
49973;BME280;65693;49.798;10.968;2023-05-02T05:31:56;98385.47;;;11.98;55.95
49973;BME280;65693;49.798;10.968;2023-05-02T05:34:23;98392.41;;;12.00;55.92
49973;BME280;65693;49.798;10.968;2023-05-02T05:36:50;98388.13;;;11.98;56.04
49973;BME280;65693;49.798;10.968;2023-05-02T05:39:18;98402.19;;;12.00;56.33
49973;BME280;65693;49.798;10.968;2023-05-02T05:41:45;98403.22;;;11.97;56.13
49973;BME280;65693;49.798;10.968;2023-05-02T05:44:11;98405.03;;;11.96;56.02
49973;BME280;65693;49.798;10.968;2023-05-02T05:46:38;98420.00;;;11.98;55.83
49973;BME280;65693;49.798;10.968;2023-05-02T05:49:04;98416.50;;;11.97;55.89
49973;BME280;65693;49.798;10.968;2023-05-02T05:51:30;98405.03;;;11.96;55.81
49973;BME280;65693;49.798;10.968;2023-05-02T05:53:57;98419.16;;;11.97;55.86
49973;BME280;65693;49.798;10.968;2023-05-02T05:56:25;98421.81;;;11.97;55.83
49973;BME280;65693;49.798;10.968;2023-05-02T05:58:52;98430.75;;;11.96;55.79
49973;BME280;65693;49.798;10.968;2023-05-02T06:01:21;98438.59;;;11.98;56.01
49973;BME280;65693;49.798;10.968;2023-05-02T06:03:47;98437.84;;;11.95;56.00
49973;BME280;65693;49.798;10.968;2023-05-02T06:06:14;98442.19;;;11.96;55.87
49973;BME280;65693;49.798;10.968;2023-05-02T06:08:40;98438.81;;;11.94;56.03
49973;BME280;65693;49.798;10.968;2023-05-02T06:11:08;98450.16;;;11.96;55.99
49973;BME280;65693;49.798;10.968;2023-05-02T06:13:37;98454.66;;;11.96;55.86
49973;BME280;65693;49.798;10.968;2023-05-02T06:16:04;98459.97;;;11.96;55.91
49973;BME280;65693;49.798;10.968;2023-05-02T06:18:30;98462.69;;;11.94;56.03
49973;BME280;65693;49.798;10.968;2023-05-02T06:20:57;98466.22;;;11.95;56.00
49973;BME280;65693;49.798;10.968;2023-05-02T06:23:23;98467.19;;;11.94;55.98
49973;BME280;65693;49.798;10.968;2023-05-02T06:25:50;98469.84;;;11.94;56.07
49973;BME280;65693;49.798;10.968;2023-05-02T06:28:16;98479.50;;;11.95;55.95
49973;BME280;65693;49.798;10.968;2023-05-02T06:30:44;98486.59;;;11.94;56.07
49973;BME280;65693;49.798;10.968;2023-05-02T06:33:10;98488.31;;;11.95;55.95
49973;BME280;65693;49.798;10.968;2023-05-02T06:35:37;98483.94;;;11.94;55.93
49973;BME280;65693;49.798;10.968;2023-05-02T06:38:03;98495.53;;;11.93;55.96
49973;BME280;65693;49.798;10.968;2023-05-02T06:40:30;98498.09;;;11.95;56.04
49973;BME280;65693;49.798;10.968;2023-05-02T06:42:56;98496.41;;;11.94;55.94
49973;BME280;65693;49.798;10.968;2023-05-02T06:45:23;98495.44;;;11.95;55.96
49973;BME280;65693;49.798;10.968;2023-05-02T06:47:51;98506.06;;;11.95;55.88
49973;BME280;65693;49.798;10.968;2023-05-02T06:50:18;98507.84;;;11.94;56.04
49973;BME280;65693;49.798;10.968;2023-05-02T06:52:45;98513.16;;;11.94;55.88
49973;BME280;65693;49.798;10.968;2023-05-02T06:55:11;98508.81;;;11.93;55.77
49973;BME280;65693;49.798;10.968;2023-05-02T06:57:38;98516.78;;;11.93;56.01
49973;BME280;65693;49.798;10.968;2023-05-02T07:00:05;98522.97;;;11.94;55.97
49973;BME280;65693;49.798;10.968;2023-05-02T07:02:32;98520.19;;;11.95;55.86
49973;BME280;65693;49.798;10.968;2023-05-02T07:05:00;98521.25;;;11.93;55.98
49973;BME280;65693;49.798;10.968;2023-05-02T07:07:26;98522.97;;;11.94;55.93
49973;BME280;65693;49.798;10.968;2023-05-02T07:09:52;98530.19;;;11.92;55.90
49973;BME280;65693;49.798;10.968;2023-05-02T07:12:19;98531.88;;;11.93;55.99
49973;BME280;65693;49.798;10.968;2023-05-02T07:14:46;98529.09;;;11.94;55.96
49973;BME280;65693;49.798;10.968;2023-05-02T07:17:12;98533.47;;;11.95;55.76
49973;BME280;65693;49.798;10.968;2023-05-02T07:19:39;98528.28;;;11.94;55.98
49973;BME280;65693;49.798;10.968;2023-05-02T07:22:07;98538.88;;;11.94;55.89
49973;BME280;65693;49.798;10.968;2023-05-02T07:24:34;98538.88;;;11.94;55.93
49973;BME280;65693;49.798;10.968;2023-05-02T07:27:00;98543.34;;;11.93;55.81
49973;BME280;65693;49.798;10.968;2023-05-02T07:29:27;98549.50;;;11.94;55.96
49973;BME280;65693;49.798;10.968;2023-05-02T07:31:54;98547.81;;;11.93;55.86
49973;BME280;65693;49.798;10.968;2023-05-02T07:34:20;98555.66;;;11.94;55.89
49973;BME280;65693;49.798;10.968;2023-05-02T07:36:47;98549.41;;;11.95;55.95
49973;BME280;65693;49.798;10.968;2023-05-02T07:39:15;98553.00;;;11.94;56.07
49973;BME280;65693;49.798;10.968;2023-05-02T07:41:41;98561.84;;;11.95;55.99
49973;BME280;65693;49.798;10.968;2023-05-02T07:44:08;98560.97;;;11.94;55.96
49973;BME280;65693;49.798;10.968;2023-05-02T07:46:34;98560.13;;;11.94;55.91
49973;BME280;65693;49.798;10.968;2023-05-02T07:49:00;98562.69;;;11.95;55.94
49973;BME280;65693;49.798;10.968;2023-05-02T07:51:27;98556.53;;;11.95;55.85
49973;BME280;65693;49.798;10.968;2023-05-02T07:53:54;98558.22;;;11.96;55.90
49973;BME280;65693;49.798;10.968;2023-05-02T07:56:24;98560.97;;;11.94;55.97
49973;BME280;65693;49.798;10.968;2023-05-02T07:58:50;98564.50;;;11.95;55.91
49973;BME280;65693;49.798;10.968;2023-05-02T08:01:17;98568.00;;;11.95;56.04
49973;BME280;65693;49.798;10.968;2023-05-02T08:03:43;98576.72;;;11.98;55.80
49973;BME280;65693;49.798;10.968;2023-05-02T08:06:10;98577.66;;;11.96;55.98
49973;BME280;65693;49.798;10.968;2023-05-02T08:08:37;98585.63;;;11.96;55.88
49973;BME280;65693;49.798;10.968;2023-05-02T08:11:03;98590.94;;;11.96;55.82
49973;BME280;65693;49.798;10.968;2023-05-02T08:13:31;98590.00;;;11.98;55.92
49973;BME280;65693;49.798;10.968;2023-05-02T08:15:58;98597.97;;;11.98;55.95
49973;BME280;65693;49.798;10.968;2023-05-02T08:18:24;98588.28;;;11.96;55.91
49973;BME280;65693;49.798;10.968;2023-05-02T08:20:51;98586.59;;;11.95;55.83
49973;BME280;65693;49.798;10.968;2023-05-02T08:23:17;98589.03;;;11.99;55.99
49973;BME280;65693;49.798;10.968;2023-05-02T08:25:44;98589.03;;;11.99;55.87
49973;BME280;65693;49.798;10.968;2023-05-02T08:28:10;98586.50;;;11.97;56.02
49973;BME280;65693;49.798;10.968;2023-05-02T08:30:38;98587.44;;;11.96;55.90
49973;BME280;65693;49.798;10.968;2023-05-02T08:33:05;98587.34;;;11.98;56.05
49973;BME280;65693;49.798;10.968;2023-05-02T08:35:31;98589.03;;;11.99;55.96
49973;BME280;65693;49.798;10.968;2023-05-02T08:37:58;98591.69;;;11.99;55.80
49973;BME280;65693;49.798;10.968;2023-05-02T08:40:24;98589.91;;;11.99;55.97
49973;BME280;65693;49.798;10.968;2023-05-02T08:42:51;98591.69;;;11.99;55.99
49973;BME280;65693;49.798;10.968;2023-05-02T08:45:21;98585.53;;;11.98;56.02
49973;BME280;65693;49.798;10.968;2023-05-02T08:47:49;98588.88;;;12.02;55.91
49973;BME280;65693;49.798;10.968;2023-05-02T08:50:16;98585.34;;;12.01;55.88
49973;BME280;65693;49.798;10.968;2023-05-02T08:52:44;98591.53;;;12.02;55.92
49973;BME280;65693;49.798;10.968;2023-05-02T08:55:12;98595.00;;;12.02;56.05
49973;BME280;65693;49.798;10.968;2023-05-02T08:57:39;98595.00;;;12.02;56.02
49973;BME280;65693;49.798;10.968;2023-05-02T09:00:06;98597.59;;;12.04;55.88
49973;BME280;65693;49.798;10.968;2023-05-02T09:02:46;98602.03;;;12.03;55.75
49973;BME280;65693;49.798;10.968;2023-05-02T09:05:19;98600.25;;;12.04;55.84
49973;BME280;65693;49.798;10.968;2023-05-02T09:07:50;98608.22;;;12.04;55.84
49973;BME280;65693;49.798;10.968;2023-05-02T09:10:17;98601.00;;;12.06;55.88
49973;BME280;65693;49.798;10.968;2023-05-02T09:12:43;98608.09;;;12.05;55.99
49973;BME280;65693;49.798;10.968;2023-05-02T09:15:11;98608.97;;;12.06;55.97
49973;BME280;65693;49.798;10.968;2023-05-02T09:17:40;98613.31;;;12.07;55.88
49973;BME280;65693;49.798;10.968;2023-05-02T09:20:07;98615.13;;;12.06;55.90
49973;BME280;65693;49.798;10.968;2023-05-02T09:22:37;98611.34;;;12.10;55.68
49973;BME280;65693;49.798;10.968;2023-05-02T09:25:04;98622.91;;;12.09;56.03
49973;BME280;65693;49.798;10.968;2023-05-02T09:27:49;98615.78;;;12.10;55.67
49973;BME280;65693;49.798;10.968;2023-05-02T09:30:17;98614.75;;;12.13;55.88
49973;BME280;65693;49.798;10.968;2023-05-02T09:32:45;98625.38;;;12.13;55.83
49973;BME280;65693;49.798;10.968;2023-05-02T09:35:11;98619.94;;;12.14;55.81
49973;BME280;65693;49.798;10.968;2023-05-02T09:37:44;98619.09;;;12.14;55.88
49973;BME280;65693;49.798;10.968;2023-05-02T09:40:11;98621.00;;;12.12;56.07
49973;BME280;65693;49.798;10.968;2023-05-02T09:42:38;98621.84;;;12.12;55.83
49973;BME280;65693;49.798;10.968;2023-05-02T09:45:05;98626.13;;;12.15;55.89
49973;BME280;65693;49.798;10.968;2023-05-02T09:47:32;98627.91;;;12.14;55.95
49973;BME280;65693;49.798;10.968;2023-05-02T09:49:59;98627.81;;;12.16;55.86
49973;BME280;65693;49.798;10.968;2023-05-02T09:52:25;98620.81;;;12.15;56.05
49973;BME280;65693;49.798;10.968;2023-05-02T09:54:53;98617.19;;;12.16;55.89
49973;BME280;65693;49.798;10.968;2023-05-02T09:57:20;98619.66;;;12.19;56.03
49973;BME280;65693;49.798;10.968;2023-05-02T09:59:55;98622.44;;;12.17;55.84
49973;BME280;65693;49.798;10.968;2023-05-02T10:02:23;98612.56;;;12.19;55.85
49973;BME280;65693;49.798;10.968;2023-05-02T10:04:50;98624.00;;;12.20;55.99
49973;BME280;65693;49.798;10.968;2023-05-02T10:07:19;98622.31;;;12.19;55.93
49973;BME280;65693;49.798;10.968;2023-05-02T10:09:46;98626.59;;;12.21;55.84
49973;BME280;65693;49.798;10.968;2023-05-02T10:12:19;98621.28;;;12.21;55.88
49973;BME280;65693;49.798;10.968;2023-05-02T10:14:53;98619.38;;;12.23;56.17
49973;BME280;65693;49.798;10.968;2023-05-02T10:17:27;98624.47;;;12.27;55.84
49973;BME280;65693;49.798;10.968;2023-05-02T10:19:56;98613.63;;;12.30;55.71
49973;BME280;65693;49.798;10.968;2023-05-02T10:22:25;98618.97;;;12.30;55.69
49973;BME280;65693;49.798;10.968;2023-05-02T10:24:52;98623.31;;;12.31;55.62
49973;BME280;65693;49.798;10.968;2023-05-02T10:27:21;98620.59;;;12.32;55.69
49973;BME280;65693;49.798;10.968;2023-05-02T10:29:50;98611.59;;;12.35;55.63
49973;BME280;65693;49.798;10.968;2023-05-02T10:32:17;98611.19;;;12.41;55.67
49973;BME280;65693;49.798;10.968;2023-05-02T10:34:45;98610.34;;;12.41;55.54
49973;BME280;65693;49.798;10.968;2023-05-02T10:37:12;98608.44;;;12.43;55.83
49973;BME280;65693;49.798;10.968;2023-05-02T10:39:39;98612.88;;;12.42;55.75
49973;BME280;65693;49.798;10.968;2023-05-02T10:42:05;98617.25;;;12.43;55.48
49973;BME280;65693;49.798;10.968;2023-05-02T10:44:34;98609.94;;;12.47;55.45
49973;BME280;65693;49.798;10.968;2023-05-02T10:47:17;98607.38;;;12.45;55.40
49973;BME280;65693;49.798;10.968;2023-05-02T10:49:48;98608.97;;;12.48;55.60
49973;BME280;65693;49.798;10.968;2023-05-02T10:52:25;98615.25;;;12.47;55.62
49973;BME280;65693;49.798;10.968;2023-05-02T10:55:14;98609.94;;;12.47;55.54
49973;BME280;65693;49.798;10.968;2023-05-02T10:58:19;98608.97;;;12.48;55.55
49973;BME280;65693;49.798;10.968;2023-05-02T11:00:47;98610.69;;;12.49;55.72
49973;BME280;65693;49.798;10.968;2023-05-02T11:03:54;98623.97;;;12.49;55.85
49973;BME280;65693;49.798;10.968;2023-05-02T11:06:21;98612.47;;;12.48;55.71
49973;BME280;65693;49.798;10.968;2023-05-02T11:08:48;98613.25;;;12.50;55.61
49973;BME280;65693;49.798;10.968;2023-05-02T11:11:42;98614.97;;;12.51;55.51
49973;BME280;65693;49.798;10.968;2023-05-02T11:14:09;98616.66;;;12.52;55.64
49973;BME280;65693;49.798;10.968;2023-05-02T11:17:04;98606.13;;;12.51;55.86
49973;BME280;65693;49.798;10.968;2023-05-02T11:22:50;98591.78;;;12.54;55.56
49973;BME280;65693;49.798;10.968;2023-05-02T11:25:30;98585.50;;;12.55;55.63
49973;BME280;65693;49.798;10.968;2023-05-02T11:27:57;98586.25;;;12.57;55.45
49973;BME280;65693;49.798;10.968;2023-05-02T11:30:40;98589.66;;;12.59;55.47
49973;BME280;65693;49.798;10.968;2023-05-02T11:33:17;98592.22;;;12.60;55.34
49973;BME280;65693;49.798;10.968;2023-05-02T11:35:46;98592.97;;;12.62;55.47
49973;BME280;65693;49.798;10.968;2023-05-02T11:38:20;98591.16;;;12.63;55.07
49973;BME280;65693;49.798;10.968;2023-05-02T11:40:55;98601.41;;;12.69;55.52
49973;BME280;65693;49.798;10.968;2023-05-02T11:43:22;98594.47;;;12.66;55.38
49973;BME280;65693;49.798;10.968;2023-05-02T11:45:50;98589.06;;;12.68;55.44
49973;BME280;65693;49.798;10.968;2023-05-02T11:48:18;98598.84;;;12.68;55.42
49973;BME280;65693;49.798;10.968;2023-05-02T11:50:50;98600.44;;;12.70;55.47
49973;BME280;65693;49.798;10.968;2023-05-02T11:53:17;98605.75;;;12.70;55.47
49973;BME280;65693;49.798;10.968;2023-05-02T11:55:47;98614.41;;;12.74;55.32
49973;BME280;65693;49.798;10.968;2023-05-02T11:58:16;98609.72;;;12.77;55.31
49973;BME280;65693;49.798;10.968;2023-05-02T12:00:43;98616.72;;;12.78;55.12
49973;BME280;65693;49.798;10.968;2023-05-02T12:03:29;98618.44;;;12.79;55.38
49973;BME280;65693;49.798;10.968;2023-05-02T12:06:07;98628.22;;;12.79;55.40
49973;BME280;65693;49.798;10.968;2023-05-02T12:08:34;98634.50;;;12.78;55.54
49973;BME280;65693;49.798;10.968;2023-05-02T12:11:01;98632.81;;;12.77;55.44
49973;BME280;65693;49.798;10.968;2023-05-02T12:13:28;98645.25;;;12.76;55.44
49973;BME280;65693;49.798;10.968;2023-05-02T12:15:55;98643.66;;;12.74;55.52
49973;BME280;65693;49.798;10.968;2023-05-02T12:18:23;98656.00;;;12.75;55.51
49973;BME280;65693;49.798;10.968;2023-05-02T12:20:52;98656.94;;;12.74;55.78
49973;BME280;65693;49.798;10.968;2023-05-02T12:23:22;98669.16;;;12.76;55.44
49973;BME280;65693;49.798;10.968;2023-05-02T12:25:48;98678.03;;;12.77;55.76
49973;BME280;65693;49.798;10.968;2023-05-02T12:28:17;98681.06;;;12.71;55.75
49973;BME280;65693;49.798;10.968;2023-05-02T12:30:47;98684.78;;;12.68;56.05
49973;BME280;65693;49.798;10.968;2023-05-02T12:33:14;98685.63;;;12.69;55.67
49973;BME280;65693;49.798;10.968;2023-05-02T12:35:42;98693.59;;;12.69;55.74
49973;BME280;65693;49.798;10.968;2023-05-02T12:38:12;98691.91;;;12.68;55.88
49973;BME280;65693;49.798;10.968;2023-05-02T12:40:45;98700.63;;;12.70;56.11
49973;BME280;65693;49.798;10.968;2023-05-02T12:43:12;98694.28;;;12.72;55.64
49973;BME280;65693;49.798;10.968;2023-05-02T12:45:39;98692.56;;;12.71;55.73
49973;BME280;65693;49.798;10.968;2023-05-02T12:48:24;98695.03;;;12.74;55.73
49973;BME280;65693;49.798;10.968;2023-05-02T12:50:52;98690.84;;;12.70;56.18
49973;BME280;65693;49.798;10.968;2023-05-02T12:53:39;98687.44;;;12.68;55.94
49973;BME280;65693;49.798;10.968;2023-05-02T12:56:08;98683.94;;;12.68;56.29
49973;BME280;65693;49.798;10.968;2023-05-02T12:58:42;98685.53;;;12.70;56.37
49973;BME280;65693;49.798;10.968;2023-05-02T13:01:09;98690.84;;;12.70;55.80
49973;BME280;65693;49.798;10.968;2023-05-02T13:03:36;98688.19;;;12.70;55.88